createdAt,value
2022-08-28T00:00:41.410Z,7.71
2022-08-28T00:01:41.413Z,9.10
2022-08-28T00:02:41.469Z,7.89
2022-08-28T00:04:41.469Z,7.74
2022-08-28T00:06:41.425Z,8.05
2022-08-28T00:07:45.515Z,7.91
2022-08-28T00:09:41.429Z,8.57
2022-08-28T00:10:41.461Z,7.71
2022-08-28T00:11:41.445Z,8.13
2022-08-28T00:12:41.436Z,8.76
2022-08-28T00:13:41.442Z,9.06
2022-08-28T00:14:41.454Z,7.92
2022-08-28T00:15:41.504Z,8.26
2022-08-28T00:16:41.445Z,8.67
2022-08-28T00:17:41.451Z,8.80
2022-08-28T00:18:41.477Z,8.65
2022-08-28T00:19:41.448Z,9.20
2022-08-28T00:20:41.469Z,8.06
2022-08-28T00:21:41.488Z,8.61
2022-08-28T00:22:41.470Z,8.11
2022-08-28T00:23:42.896Z,8.64
2022-08-28T00:24:41.468Z,7.94
2022-08-28T00:26:41.511Z,8.32
2022-08-28T00:27:41.482Z,8.94
2022-08-28T00:28:41.484Z,8.85
2022-08-28T00:30:41.483Z,8.78
2022-08-28T00:31:41.577Z,8.73
2022-08-28T00:32:41.496Z,9.69
2022-08-28T00:34:41.499Z,8.92
2022-08-28T00:36:41.504Z,9.20
2022-08-28T00:38:41.509Z,8.54
2022-08-28T00:41:41.511Z,9.06
2022-08-28T00:42:41.526Z,8.75
2022-08-28T00:43:41.515Z,8.93
2022-08-28T00:44:41.512Z,8.14
2022-08-28T00:46:41.612Z,8.47
2022-08-28T00:47:41.533Z,8.45
2022-08-28T00:48:41.546Z,8.65
2022-08-28T00:49:41.530Z,8.78
2022-08-28T00:50:41.540Z,8.91
2022-08-28T00:51:41.529Z,9.04
2022-08-28T00:54:41.533Z,7.87
2022-08-28T00:55:41.552Z,8.76
2022-08-28T00:56:41.553Z,9.06
2022-08-28T00:57:41.549Z,8.26
2022-08-28T00:58:41.565Z,9.00
2022-08-28T00:59:41.559Z,9.49
2022-08-28T01:00:41.565Z,8.57
2022-08-28T01:01:41.683Z,9.18
2022-08-28T01:02:41.633Z,8.77
2022-08-28T01:03:41.558Z,8.19
2022-08-28T01:04:41.581Z,9.53
2022-08-28T01:05:41.584Z,9.35
2022-08-28T01:06:41.590Z,9.20
2022-08-28T01:07:41.580Z,8.83
2022-08-28T01:08:41.586Z,8.43
2022-08-28T01:09:41.577Z,8.47
2022-08-28T01:10:41.705Z,8.21
2022-08-28T01:11:41.604Z,9.39
2022-08-28T01:12:41.611Z,8.28
2022-08-28T01:13:41.607Z,9.76
2022-08-28T01:14:41.584Z,8.14
2022-08-28T01:15:41.644Z,8.66
2022-08-28T01:17:43.166Z,8.84
2022-08-28T01:18:41.609Z,9.06
2022-08-28T01:20:41.616Z,9.08
2022-08-28T01:21:41.611Z,9.17
2022-08-28T01:24:41.625Z,8.86
2022-08-28T01:25:41.661Z,8.95
2022-08-28T01:27:41.641Z,9.21
2022-08-28T01:30:41.644Z,9.01
2022-08-28T01:31:41.714Z,8.22
2022-08-28T01:34:41.653Z,9.08
2022-08-28T01:35:41.666Z,8.68
2022-08-28T01:36:41.661Z,9.04
2022-08-28T01:37:41.665Z,9.28
2022-08-28T01:38:41.662Z,9.18
2022-08-28T01:39:41.683Z,10.12
2022-08-28T01:40:41.796Z,10.67
2022-08-28T01:41:41.666Z,9.85
2022-08-28T01:42:41.679Z,9.99
2022-08-28T01:43:41.689Z,9.21
2022-08-28T01:44:41.674Z,10.17
2022-08-28T01:45:41.676Z,10.50
2022-08-28T01:46:41.725Z,10.37
2022-08-28T01:47:41.689Z,10.44
2022-08-28T01:48:41.684Z,11.63
2022-08-28T01:49:41.697Z,11.49
2022-08-28T01:51:41.705Z,10.03
2022-08-28T01:53:41.705Z,9.65
2022-08-28T01:54:41.700Z,10.55
2022-08-28T01:55:41.696Z,9.18
2022-08-28T01:56:41.709Z,10.39
2022-08-28T01:57:41.719Z,10.59
2022-08-28T01:58:41.718Z,10.34
2022-08-28T01:59:41.706Z,10.84
2022-08-28T02:00:41.737Z,10.16
2022-08-28T02:01:41.774Z,10.92
2022-08-28T02:02:41.725Z,11.36
2022-08-28T02:03:41.731Z,9.82
2022-08-28T02:04:44.148Z,10.52
2022-08-28T02:05:41.747Z,11.02
2022-08-28T02:06:41.743Z,9.79
2022-08-28T02:07:41.742Z,10.26
2022-08-28T02:08:41.739Z,10.26
2022-08-28T02:09:41.734Z,9.91
2022-08-28T02:10:41.731Z,10.12
2022-08-28T02:11:41.736Z,10.34
2022-08-28T02:12:41.737Z,10.08
2022-08-28T02:13:41.765Z,10.52
2022-08-28T02:14:41.760Z,10.43
2022-08-28T02:15:41.788Z,10.62
2022-08-28T02:16:41.797Z,10.95
2022-08-28T02:17:41.760Z,10.30
2022-08-28T02:18:41.778Z,10.20
2022-08-28T02:19:41.781Z,10.11
2022-08-28T02:20:41.765Z,10.68
2022-08-28T02:21:41.865Z,10.49
2022-08-28T02:22:41.771Z,11.07
2022-08-28T02:24:41.789Z,10.35
2022-08-28T02:27:41.782Z,9.53
2022-08-28T02:29:41.800Z,9.92
2022-08-28T02:30:41.800Z,10.50
2022-08-28T02:31:41.815Z,9.70
2022-08-28T02:32:41.799Z,10.19
2022-08-28T02:34:41.800Z,9.35
2022-08-28T02:35:41.822Z,8.44
2022-08-28T02:37:41.804Z,9.93
2022-08-28T02:38:41.835Z,9.60
2022-08-28T02:39:41.806Z,10.03
2022-08-28T02:40:41.821Z,10.77
2022-08-28T02:41:41.829Z,9.32
2022-08-28T02:42:41.837Z,9.23
2022-08-28T02:43:41.852Z,9.07
2022-08-28T02:44:41.828Z,9.46
2022-08-28T02:51:41.859Z,9.86
2022-08-28T02:52:41.868Z,9.11
2022-08-28T02:55:41.875Z,8.83
2022-08-28T03:02:41.929Z,9.97
2022-08-28T03:03:41.889Z,9.35
2022-08-28T03:05:41.887Z,9.95
2022-08-28T03:06:41.879Z,9.57
2022-08-28T03:10:41.896Z,9.87
2022-08-28T03:11:41.893Z,11.40
2022-08-28T03:12:41.894Z,9.37
2022-08-28T03:13:41.926Z,9.85
2022-08-28T03:14:41.914Z,10.36
2022-08-28T03:16:42.011Z,10.76
2022-08-28T03:17:41.975Z,10.23
2022-08-28T03:18:41.902Z,10.78
2022-08-28T03:20:41.929Z,10.58
2022-08-28T03:22:41.946Z,10.73
2022-08-28T03:24:41.927Z,9.70
2022-08-28T03:27:41.963Z,10.40
2022-08-28T03:28:41.951Z,11.07
2022-08-28T03:29:41.947Z,10.04
2022-08-28T03:30:41.996Z,10.17
2022-08-28T03:31:41.963Z,10.88
2022-08-28T03:32:41.948Z,11.71
2022-08-28T03:33:42.521Z,11.45
2022-08-28T03:34:41.960Z,11.74
2022-08-28T03:35:41.937Z,10.46
2022-08-28T03:36:41.947Z,11.67
2022-08-28T03:37:41.956Z,10.65
2022-08-28T03:38:41.965Z,11.80
2022-08-28T03:40:41.979Z,11.18
2022-08-28T03:41:41.988Z,11.03
2022-08-28T03:43:41.998Z,11.34
2022-08-28T03:44:41.996Z,11.29
2022-08-28T03:46:41.992Z,10.56
2022-08-28T03:47:41.990Z,11.00
2022-08-28T03:48:42.231Z,11.28
2022-08-28T03:50:42.000Z,10.88
2022-08-28T03:51:41.998Z,11.50
2022-08-28T03:52:41.994Z,10.90
2022-08-28T03:53:42.016Z,10.95
2022-08-28T03:54:42.002Z,11.42
2022-08-28T03:55:42.008Z,11.79
2022-08-28T03:56:42.011Z,11.54
2022-08-28T03:57:42.020Z,10.82
2022-08-28T03:58:42.007Z,12.08
2022-08-28T04:00:42.035Z,11.79
2022-08-28T04:01:42.090Z,11.76
2022-08-28T04:03:42.087Z,11.17
2022-08-28T04:04:42.049Z,11.74
2022-08-28T04:05:42.042Z,11.65
2022-08-28T04:07:42.035Z,11.83
2022-08-28T04:08:42.060Z,12.52
2022-08-28T04:09:42.042Z,11.80
2022-08-28T04:11:42.059Z,13.17
2022-08-28T04:12:42.066Z,11.92
2022-08-28T04:13:42.171Z,12.32
2022-08-28T04:14:42.064Z,12.31
2022-08-28T04:15:42.070Z,12.57
2022-08-28T04:16:42.157Z,12.35
2022-08-28T04:17:42.059Z,12.18
2022-08-28T04:18:42.084Z,11.54
2022-08-28T04:19:42.062Z,12.56
2022-08-28T04:21:42.078Z,12.16
2022-08-28T04:23:42.074Z,12.83
2022-08-28T04:24:42.085Z,12.53
2022-08-28T04:25:42.100Z,11.68
2022-08-28T04:26:42.096Z,13.16
2022-08-28T04:27:42.100Z,12.00
2022-08-28T04:28:42.088Z,12.27
2022-08-28T04:30:42.084Z,12.12
2022-08-28T04:31:42.175Z,12.30
2022-08-28T04:32:42.123Z,12.06
2022-08-28T04:35:42.113Z,12.08
2022-08-28T04:36:42.122Z,12.28
2022-08-28T04:37:42.126Z,12.83
2022-08-28T04:39:42.114Z,12.95
2022-08-28T04:40:42.123Z,12.22
2022-08-28T04:41:42.126Z,12.41
2022-08-28T04:43:42.140Z,12.07
2022-08-28T04:44:42.147Z,12.15
2022-08-28T04:45:42.263Z,13.06
2022-08-28T04:46:42.153Z,12.72
2022-08-28T04:47:42.142Z,12.02
2022-08-28T04:49:42.159Z,11.71
2022-08-28T04:50:42.156Z,13.06
2022-08-28T04:51:42.382Z,12.81
2022-08-28T04:56:42.189Z,12.54
2022-08-28T04:57:42.182Z,12.74
2022-08-28T04:58:42.183Z,12.15
2022-08-28T04:59:42.166Z,11.56
2022-08-28T05:00:42.228Z,11.52
2022-08-28T05:01:42.172Z,13.22
2022-08-28T05:02:42.244Z,12.31
2022-08-28T05:03:42.183Z,11.69
2022-08-28T05:04:42.177Z,11.60
2022-08-28T05:05:42.183Z,11.67
2022-08-28T05:06:42.215Z,11.57
2022-08-28T05:07:42.177Z,12.02
2022-08-28T05:08:42.201Z,10.93
2022-08-28T05:09:42.200Z,10.70
2022-08-28T05:10:42.212Z,11.02
2022-08-28T05:12:42.215Z,10.33
2022-08-28T05:14:42.219Z,11.38
2022-08-28T05:15:42.206Z,11.89
2022-08-28T05:16:42.247Z,11.79
2022-08-28T05:17:42.226Z,11.18
2022-08-28T05:20:42.233Z,10.98
2022-08-28T05:22:42.235Z,11.35
2022-08-28T05:23:42.256Z,12.37
2022-08-28T05:24:42.234Z,10.59
2022-08-28T05:25:42.228Z,12.60
2022-08-28T05:27:42.240Z,11.81
2022-08-28T05:28:42.258Z,11.56
2022-08-28T05:29:42.271Z,11.85
2022-08-28T05:30:42.255Z,11.98
2022-08-28T05:31:42.347Z,11.23
2022-08-28T05:33:42.274Z,11.93
2022-08-28T05:34:42.259Z,11.72
2022-08-28T05:35:42.276Z,12.14
2022-08-28T05:37:42.298Z,12.06
2022-08-28T05:39:42.262Z,12.45
2022-08-28T05:40:42.276Z,11.70
2022-08-28T05:41:42.275Z,12.48
2022-08-28T05:42:42.280Z,12.61
2022-08-28T05:43:42.290Z,11.84
2022-08-28T05:44:42.302Z,11.59
2022-08-28T05:46:42.316Z,11.72
2022-08-28T05:47:42.288Z,11.33
2022-08-28T05:48:42.303Z,12.03
2022-08-28T05:49:42.302Z,11.14
2022-08-28T05:51:42.306Z,12.93
2022-08-28T05:53:42.312Z,12.27
2022-08-28T05:54:42.303Z,13.88
2022-08-28T05:55:42.324Z,12.11
2022-08-28T05:56:42.329Z,12.00
2022-08-28T05:57:42.337Z,12.45
2022-08-28T05:58:42.332Z,13.06
2022-08-28T06:01:42.395Z,12.42
2022-08-28T06:02:42.350Z,12.33
2022-08-28T06:03:42.380Z,13.07
2022-08-28T06:04:42.345Z,13.08
2022-08-28T06:05:42.353Z,13.39
2022-08-28T06:06:42.356Z,12.48
2022-08-28T06:09:42.361Z,13.12
2022-08-28T06:10:42.363Z,13.31
2022-08-28T06:12:42.347Z,13.45
2022-08-28T06:14:42.393Z,12.88
2022-08-28T06:15:42.363Z,12.57
2022-08-28T06:17:42.389Z,12.89
2022-08-28T06:18:42.384Z,13.53
2022-08-28T06:19:42.369Z,13.34
2022-08-28T06:20:42.374Z,14.56
2022-08-28T06:22:42.382Z,13.60
2022-08-28T06:23:42.380Z,14.46
2022-08-28T06:24:42.398Z,13.32
2022-08-28T06:25:42.389Z,14.34
2022-08-28T06:27:42.403Z,14.79
2022-08-28T06:28:42.410Z,13.33
2022-08-28T06:29:42.398Z,14.20
2022-08-28T06:30:57.298Z,13.58
2022-08-28T06:31:42.459Z,14.09
2022-08-28T06:32:42.409Z,13.71
2022-08-28T06:33:42.427Z,13.68
2022-08-28T06:34:42.423Z,14.57
2022-08-28T06:35:42.461Z,12.71
2022-08-28T06:36:42.438Z,14.92
2022-08-28T06:37:42.418Z,14.46
2022-08-28T06:38:42.438Z,14.71
2022-08-28T06:39:42.430Z,15.30
2022-08-28T06:41:42.446Z,14.39
2022-08-28T06:42:42.459Z,13.65
2022-08-28T06:43:42.446Z,12.25
2022-08-28T06:44:42.448Z,14.25
2022-08-28T06:45:42.536Z,13.41
2022-08-28T06:46:42.446Z,13.99
2022-08-28T06:47:42.451Z,13.35
2022-08-28T06:48:42.451Z,14.23
2022-08-28T06:49:42.452Z,14.67
2022-08-28T06:50:42.461Z,14.65
2022-08-28T06:51:42.452Z,14.17
2022-08-28T06:52:42.446Z,14.98
2022-08-28T06:53:42.467Z,15.06
2022-08-28T06:54:55.392Z,15.16
2022-08-28T06:57:42.488Z,14.56
2022-08-28T06:58:42.469Z,14.85
2022-08-28T06:59:42.487Z,15.16
2022-08-28T07:00:42.470Z,15.02
2022-08-28T07:01:42.547Z,14.50
2022-08-28T07:03:44.152Z,15.32
2022-08-28T07:04:42.484Z,14.60
2022-08-28T07:05:42.490Z,14.25
2022-08-28T07:06:42.501Z,14.91
2022-08-28T07:07:42.502Z,15.44
2022-08-28T07:08:42.520Z,15.24
2022-08-28T07:09:42.497Z,15.20
2022-08-28T07:10:42.515Z,15.24
2022-08-28T07:13:42.539Z,15.04
2022-08-28T07:15:42.614Z,14.72
2022-08-28T07:16:42.534Z,15.46
2022-08-28T07:17:42.529Z,14.66
2022-08-28T07:18:42.543Z,15.08
2022-08-28T07:19:42.547Z,15.08
2022-08-28T07:21:42.563Z,14.94
2022-08-28T07:22:42.561Z,14.26
2022-08-28T07:23:42.582Z,14.91
2022-08-28T07:24:42.546Z,14.68
2022-08-28T07:26:42.555Z,15.45
2022-08-28T07:27:42.562Z,15.41
2022-08-28T07:28:42.556Z,13.89
2022-08-28T07:29:42.559Z,14.90
2022-08-28T07:30:42.660Z,15.37
2022-08-28T07:32:42.558Z,14.39
2022-08-28T07:33:42.588Z,15.40
2022-08-28T07:34:42.574Z,16.13
2022-08-28T07:35:42.575Z,14.52
2022-08-28T07:36:42.599Z,13.94
2022-08-28T07:37:42.587Z,16.05
2022-08-28T07:38:42.586Z,15.47
2022-08-28T07:39:42.592Z,15.12
2022-08-28T07:40:42.590Z,14.81
2022-08-28T07:41:42.946Z,15.30
2022-08-28T07:42:42.588Z,15.19
2022-08-28T07:43:42.593Z,15.31
2022-08-28T07:44:42.589Z,15.22
2022-08-28T07:45:42.701Z,15.08
2022-08-28T07:46:42.591Z,15.21
2022-08-28T07:47:42.591Z,14.82
2022-08-28T07:48:42.627Z,14.07
2022-08-28T07:49:42.606Z,15.85
2022-08-28T07:50:42.604Z,14.62
2022-08-28T07:51:42.605Z,15.71
2022-08-28T07:52:42.622Z,15.80
2022-08-28T07:54:42.681Z,16.12
2022-08-28T07:55:42.681Z,15.59
2022-08-28T07:56:42.624Z,15.07
2022-08-28T07:59:42.641Z,16.57
2022-08-28T08:00:42.691Z,14.53
2022-08-28T08:01:42.685Z,14.71
2022-08-28T08:02:42.655Z,15.53
2022-08-28T08:03:42.729Z,16.82
2022-08-28T08:04:42.643Z,15.57
2022-08-28T08:05:42.643Z,16.97
2022-08-28T08:06:42.726Z,16.59
2022-08-28T08:07:43.770Z,15.48
2022-08-28T08:08:42.685Z,15.46
2022-08-28T08:09:42.661Z,15.57
2022-08-28T08:10:42.673Z,15.65
2022-08-28T08:11:42.708Z,15.73
2022-08-28T08:12:42.671Z,15.44
2022-08-28T08:13:42.693Z,16.94
2022-08-28T08:14:42.690Z,16.39
2022-08-28T08:15:42.756Z,16.35
2022-08-28T08:16:42.698Z,16.21
2022-08-28T08:17:42.700Z,15.21
2022-08-28T08:18:42.688Z,14.77
2022-08-28T08:19:42.701Z,16.52
2022-08-28T08:20:42.702Z,16.57
2022-08-28T08:21:42.712Z,15.71
2022-08-28T08:22:42.783Z,15.90
2022-08-28T08:23:42.726Z,16.26
2022-08-28T08:24:42.730Z,16.03
2022-08-28T08:25:42.712Z,14.56
2022-08-28T08:26:42.705Z,16.02
2022-08-28T08:27:43.123Z,16.52
2022-08-28T08:28:42.715Z,16.65
2022-08-28T08:29:42.722Z,15.87
2022-08-28T08:30:42.742Z,14.78
2022-08-28T08:31:43.652Z,15.26
2022-08-28T08:32:42.730Z,14.93
2022-08-28T08:33:42.722Z,15.46
2022-08-28T08:34:42.725Z,15.25
2022-08-28T08:37:42.737Z,15.06
2022-08-28T08:38:42.732Z,14.84
2022-08-28T08:39:42.763Z,14.24
2022-08-28T08:40:42.865Z,15.09
2022-08-28T08:41:42.745Z,14.91
2022-08-28T08:42:42.743Z,14.47
2022-08-28T08:43:42.762Z,15.39
2022-08-28T08:44:42.766Z,15.57
2022-08-28T08:45:42.758Z,14.41
2022-08-28T08:46:42.802Z,15.16
2022-08-28T08:47:42.761Z,15.09
2022-08-28T08:48:42.774Z,16.68
2022-08-28T08:49:42.758Z,13.88
2022-08-28T08:50:42.773Z,15.54
2022-08-28T08:51:42.774Z,14.87
2022-08-28T08:52:42.787Z,14.35
2022-08-28T08:53:42.784Z,14.09
2022-08-28T08:54:42.794Z,14.45
2022-08-28T08:55:42.790Z,14.30
2022-08-28T08:56:42.783Z,15.32
2022-08-28T08:57:42.793Z,15.89
2022-08-28T08:58:42.797Z,14.23
2022-08-28T08:59:42.799Z,14.13
2022-08-28T09:00:42.797Z,14.90
2022-08-28T09:01:42.828Z,15.15
2022-08-28T09:02:43.841Z,15.59
2022-08-28T09:03:43.507Z,14.87
2022-08-28T09:04:42.798Z,16.36
2022-08-28T09:05:42.818Z,14.75
2022-08-28T09:06:42.815Z,15.38
2022-08-28T09:07:42.902Z,14.01
2022-08-28T09:08:42.825Z,13.80
2022-08-28T09:09:42.828Z,13.52
2022-08-28T09:10:42.816Z,14.79
2022-08-28T09:11:42.804Z,13.84
2022-08-28T09:12:42.934Z,14.93
2022-08-28T09:13:42.826Z,13.86
2022-08-28T09:14:42.825Z,13.29
2022-08-28T09:15:46.327Z,12.84
2022-08-28T09:16:42.826Z,12.38
2022-08-28T09:17:42.899Z,12.55
2022-08-28T09:18:42.843Z,12.72
2022-08-28T09:19:42.837Z,13.61
2022-08-28T09:20:42.847Z,12.96
2022-08-28T09:21:42.959Z,12.86
2022-08-28T09:22:43.008Z,13.68
2022-08-28T09:23:42.844Z,13.61
2022-08-28T09:25:42.855Z,13.12
2022-08-28T09:27:42.914Z,13.48
2022-08-28T09:28:42.847Z,14.01
2022-08-28T09:29:42.865Z,11.68
2022-08-28T09:30:42.926Z,13.04
2022-08-28T09:31:42.878Z,12.21
2022-08-28T09:32:42.956Z,12.10
2022-08-28T09:33:42.882Z,12.52
2022-08-28T09:34:42.893Z,11.85
2022-08-28T09:35:42.879Z,11.60
2022-08-28T09:36:42.877Z,12.46
2022-08-28T09:37:42.875Z,13.47
2022-08-28T09:38:42.897Z,12.28
2022-08-28T09:39:45.632Z,12.53
2022-08-28T09:40:42.927Z,12.37
2022-08-28T09:41:42.894Z,12.66
2022-08-28T09:42:42.930Z,11.28
2022-08-28T09:43:42.881Z,11.79
2022-08-28T09:44:42.928Z,11.24
2022-08-28T09:45:42.901Z,11.63
2022-08-28T09:47:46.347Z,13.32
2022-08-28T09:48:42.924Z,12.77
2022-08-28T09:50:42.931Z,12.47
2022-08-28T09:51:42.922Z,12.54
2022-08-28T09:52:42.964Z,10.73
2022-08-28T09:53:42.909Z,11.30
2022-08-28T09:54:42.924Z,10.85
2022-08-28T09:56:42.934Z,11.48
2022-08-28T09:57:42.938Z,12.59
2022-08-28T09:58:42.930Z,11.90
2022-08-28T09:59:42.946Z,11.73
2022-08-28T10:00:42.976Z,10.79
2022-08-28T10:01:44.777Z,11.40
2022-08-28T10:03:42.951Z,10.21
2022-08-28T10:04:43.000Z,11.28
2022-08-28T10:05:42.972Z,12.88
2022-08-28T10:06:43.501Z,10.47
2022-08-28T10:07:42.950Z,10.69
2022-08-28T10:08:42.999Z,10.46
2022-08-28T10:09:46.839Z,11.02
2022-08-28T10:11:44.373Z,11.12
2022-08-28T10:12:43.003Z,10.41
2022-08-28T10:13:43.000Z,10.44
2022-08-28T10:14:42.971Z,10.99
2022-08-28T10:15:43.564Z,10.93
2022-08-28T10:16:42.997Z,10.20
2022-08-28T10:17:42.984Z,10.22
2022-08-28T10:18:42.992Z,10.29
2022-08-28T10:19:42.983Z,10.62
2022-08-28T10:20:43.002Z,10.09
2022-08-28T10:21:42.996Z,9.98
2022-08-28T10:22:43.015Z,9.52
2022-08-28T10:23:42.996Z,9.58
2022-08-28T10:24:43.002Z,9.86
2022-08-28T10:25:43.028Z,9.48
2022-08-28T10:26:43.013Z,10.12
2022-08-28T10:27:43.025Z,9.66
2022-08-28T10:28:43.011Z,10.19
2022-08-28T10:29:43.022Z,8.48
2022-08-28T10:30:43.087Z,9.44
2022-08-28T10:31:43.036Z,9.17
2022-08-28T10:32:43.023Z,9.39
2022-08-28T10:33:43.052Z,9.61
2022-08-28T10:34:43.047Z,9.85
2022-08-28T10:35:43.062Z,9.46
2022-08-28T10:36:43.063Z,7.57
2022-08-28T10:37:43.053Z,8.40
2022-08-28T10:38:43.049Z,8.77
2022-08-28T10:39:43.046Z,8.39
2022-08-28T10:40:43.054Z,9.07
2022-08-28T10:42:43.054Z,9.04
2022-08-28T10:43:43.063Z,9.37
2022-08-28T10:44:43.052Z,9.77
2022-08-28T10:45:43.061Z,9.17
2022-08-28T10:46:43.142Z,8.68
2022-08-28T10:47:43.061Z,8.80
2022-08-28T10:48:43.073Z,9.83
2022-08-28T10:49:43.063Z,9.22
2022-08-28T10:50:43.088Z,8.27
2022-08-28T10:51:44.406Z,9.65
2022-08-28T10:52:43.085Z,9.54
2022-08-28T10:54:43.099Z,9.81
2022-08-28T10:55:43.098Z,9.45
2022-08-28T10:56:43.100Z,9.48
2022-08-28T10:57:43.094Z,8.93
2022-08-28T10:58:43.112Z,8.34
2022-08-28T10:59:43.152Z,9.99
2022-08-28T11:00:43.091Z,8.68
2022-08-28T11:03:43.101Z,9.57
2022-08-28T11:04:43.121Z,8.62
2022-08-28T11:05:52.515Z,8.35
2022-08-28T11:06:43.122Z,8.61
2022-08-28T11:07:43.128Z,9.11
2022-08-28T11:08:43.137Z,8.87
2022-08-28T11:09:43.116Z,8.83
2022-08-28T11:10:43.139Z,7.66
2022-08-28T11:11:43.137Z,8.01
2022-08-28T11:12:43.130Z,8.13
2022-08-28T11:13:43.142Z,7.62
2022-08-28T11:14:48.387Z,8.05
2022-08-28T11:15:43.153Z,7.56
2022-08-28T11:17:43.157Z,7.50
2022-08-28T11:18:43.140Z,7.97
2022-08-28T11:19:44.951Z,7.97
2022-08-28T11:20:43.151Z,7.69
2022-08-28T11:21:43.161Z,8.08
2022-08-28T11:22:43.159Z,6.97
2022-08-28T11:23:43.160Z,7.67
2022-08-28T11:24:43.833Z,7.46
2022-08-28T11:25:43.174Z,8.08
2022-08-28T11:26:43.165Z,7.39
2022-08-28T11:27:43.171Z,6.83
2022-08-28T11:28:43.171Z,8.22
2022-08-28T11:29:43.162Z,7.19
2022-08-28T11:31:43.193Z,7.79
2022-08-28T11:32:46.960Z,7.84
2022-08-28T11:34:43.184Z,6.94
2022-08-28T11:35:43.199Z,7.99
2022-08-28T11:36:43.208Z,7.12
2022-08-28T11:37:43.192Z,7.82
2022-08-28T11:38:43.198Z,8.09
2022-08-28T11:39:43.223Z,7.49
2022-08-28T11:40:43.209Z,7.21
2022-08-28T11:41:43.197Z,6.57
2022-08-28T11:42:43.195Z,7.16
2022-08-28T11:43:43.220Z,6.64
2022-08-28T11:44:43.236Z,6.59
2022-08-28T11:45:46.711Z,6.66
2022-08-28T11:46:43.300Z,7.01
2022-08-28T11:47:43.237Z,7.21
2022-08-28T11:48:43.250Z,7.18
2022-08-28T11:49:43.256Z,6.92
2022-08-28T11:50:43.227Z,7.14
2022-08-28T11:51:43.250Z,6.61
2022-08-28T11:52:43.236Z,6.51
2022-08-28T11:53:43.257Z,6.37
2022-08-28T11:54:43.271Z,6.78
2022-08-28T11:56:43.246Z,6.56
2022-08-28T11:57:43.257Z,6.77
2022-08-28T11:58:43.354Z,6.95
2022-08-28T11:59:43.262Z,7.34
2022-08-28T12:00:43.243Z,7.00
2022-08-28T12:01:43.268Z,7.32
2022-08-28T12:02:43.342Z,7.02
2022-08-28T12:03:43.288Z,6.42
2022-08-28T12:05:44.322Z,6.71
2022-08-28T12:06:43.289Z,7.72
2022-08-28T12:07:43.291Z,6.44
2022-08-28T12:08:43.299Z,6.56
2022-08-28T12:09:43.287Z,6.95
2022-08-28T12:11:43.290Z,6.82
2022-08-28T12:12:43.283Z,7.20
2022-08-28T12:13:43.291Z,7.19
2022-08-28T12:14:43.294Z,6.91
2022-08-28T12:15:43.378Z,6.41
2022-08-28T12:16:43.295Z,7.28
2022-08-28T12:17:43.301Z,6.17
2022-08-28T12:18:43.303Z,7.04
2022-08-28T12:19:56.073Z,6.73
2022-08-28T12:21:43.304Z,6.96
2022-08-28T12:22:43.294Z,6.68
2022-08-28T12:23:43.326Z,7.07
2022-08-28T12:24:43.322Z,7.10
2022-08-28T12:25:43.325Z,6.72
2022-08-28T12:26:43.327Z,6.16
2022-08-28T12:27:43.340Z,6.52
2022-08-28T12:28:43.317Z,6.76
2022-08-28T12:29:43.359Z,6.22
2022-08-28T12:30:43.520Z,6.49
2022-08-28T12:31:43.357Z,7.12
2022-08-28T12:32:43.350Z,6.69
2022-08-28T12:33:43.359Z,7.05
2022-08-28T12:34:43.352Z,6.90
2022-08-28T12:35:43.992Z,6.82
2022-08-28T12:36:43.355Z,6.60
2022-08-28T12:37:52.030Z,7.75
2022-08-28T12:38:43.356Z,7.13
2022-08-28T12:39:43.368Z,6.13
2022-08-28T12:40:43.470Z,7.55
2022-08-28T12:41:43.357Z,7.45
2022-08-28T12:42:43.372Z,7.51
2022-08-28T12:43:46.753Z,6.82
2022-08-28T12:45:43.404Z,5.23
2022-08-28T12:46:43.380Z,6.23
2022-08-28T12:47:43.382Z,6.09
2022-08-28T12:48:43.385Z,5.89
2022-08-28T12:49:43.378Z,6.49
2022-08-28T12:50:43.384Z,5.32
2022-08-28T12:51:43.436Z,5.76
2022-08-28T12:52:43.405Z,5.98
2022-08-28T12:53:43.400Z,6.08
2022-08-28T12:54:43.409Z,6.69
2022-08-28T12:55:43.441Z,5.74
2022-08-28T12:56:43.436Z,6.55
2022-08-28T12:57:43.397Z,6.36
2022-08-28T12:58:43.393Z,5.76
2022-08-28T13:00:43.414Z,7.09
2022-08-28T13:01:43.498Z,5.91
2022-08-28T13:02:46.433Z,6.57
2022-08-28T13:03:43.435Z,6.36
2022-08-28T13:04:43.430Z,6.42
2022-08-28T13:05:43.417Z,5.89
2022-08-28T13:06:43.433Z,6.03
2022-08-28T13:07:43.427Z,5.99
2022-08-28T13:10:43.443Z,5.94
2022-08-28T13:12:54.693Z,5.85
2022-08-28T13:13:43.443Z,6.16
2022-08-28T13:14:43.469Z,6.72
2022-08-28T13:15:43.483Z,6.15
2022-08-28T13:16:43.516Z,6.13
2022-08-28T13:17:43.458Z,6.08
2022-08-28T13:18:43.455Z,5.97
2022-08-28T13:19:43.508Z,6.56
2022-08-28T13:20:43.463Z,5.88
2022-08-28T13:21:43.485Z,6.33
2022-08-28T13:22:45.875Z,7.07
2022-08-28T13:23:43.472Z,5.72
2022-08-28T13:24:43.515Z,7.40
2022-08-28T13:25:43.487Z,6.88
2022-08-28T13:27:43.498Z,6.08
2022-08-28T13:28:43.520Z,6.29
2022-08-28T13:29:43.496Z,6.24
2022-08-28T13:30:44.881Z,7.13
2022-08-28T13:31:43.516Z,6.78
2022-08-28T13:32:43.507Z,6.29
2022-08-28T13:33:43.504Z,6.14
2022-08-28T13:34:47.630Z,6.70
2022-08-28T13:35:43.522Z,5.91
2022-08-28T13:36:43.517Z,6.41
2022-08-28T13:37:43.530Z,6.36
2022-08-28T13:38:43.523Z,5.59
2022-08-28T13:39:43.555Z,5.74
2022-08-28T13:40:57.607Z,6.36
2022-08-28T13:41:43.528Z,6.33
2022-08-28T13:42:43.522Z,5.94
2022-08-28T13:43:43.521Z,6.15
2022-08-28T13:44:43.523Z,6.14
2022-08-28T13:45:44.094Z,6.12
2022-08-28T13:46:43.529Z,5.63
2022-08-28T13:47:43.530Z,5.83
2022-08-28T13:48:43.540Z,6.31
2022-08-28T13:50:44.766Z,6.57
2022-08-28T13:51:43.610Z,6.82
2022-08-28T13:52:43.555Z,5.99
2022-08-28T13:53:43.550Z,5.96
2022-08-28T13:54:45.293Z,6.06
2022-08-28T13:55:43.557Z,5.72
2022-08-28T13:56:43.564Z,5.41
2022-08-28T13:58:43.575Z,6.46
2022-08-28T13:59:43.599Z,6.05
2022-08-28T14:00:43.654Z,6.20
2022-08-28T14:01:43.621Z,5.90
2022-08-28T14:02:43.616Z,6.33
2022-08-28T14:03:43.590Z,5.60
2022-08-28T14:04:43.604Z,5.86
2022-08-28T14:07:44.972Z,5.88
2022-08-28T14:08:43.628Z,5.94
2022-08-28T14:09:43.632Z,6.09
2022-08-28T14:10:43.616Z,6.77
2022-08-28T14:11:43.605Z,6.08
2022-08-28T14:12:43.610Z,6.27
2022-08-28T14:13:47.461Z,5.33
2022-08-28T14:14:43.623Z,6.33
2022-08-28T14:17:43.622Z,6.36
2022-08-28T14:18:43.619Z,5.87
2022-08-28T14:19:43.640Z,6.02
2022-08-28T14:20:43.645Z,5.32
2022-08-28T14:21:43.626Z,5.81
2022-08-28T14:23:43.646Z,5.63
2022-08-28T14:25:43.657Z,5.56
2022-08-28T14:26:43.645Z,5.67
2022-08-28T14:27:43.634Z,5.64
2022-08-28T14:28:43.658Z,6.15
2022-08-28T14:30:43.670Z,5.18
2022-08-28T14:31:43.709Z,5.08
2022-08-28T14:32:43.652Z,5.88
2022-08-28T14:33:45.705Z,5.48
2022-08-28T14:34:43.654Z,6.28
2022-08-28T14:35:43.673Z,5.16
2022-08-28T14:36:43.660Z,5.53
2022-08-28T14:37:43.662Z,5.45
2022-08-28T14:38:43.669Z,5.37
2022-08-28T14:39:43.683Z,6.14
2022-08-28T14:40:43.755Z,5.36
2022-08-28T14:41:43.678Z,5.78
2022-08-28T14:42:43.670Z,5.34
2022-08-28T14:43:43.695Z,5.39
2022-08-28T14:44:43.699Z,5.45
2022-08-28T14:45:43.792Z,4.92
2022-08-28T14:46:43.701Z,5.96
2022-08-28T14:47:43.717Z,5.46
2022-08-28T14:48:43.686Z,5.67
2022-08-28T14:49:43.799Z,5.48
2022-08-28T14:50:43.715Z,5.43
2022-08-28T14:51:43.719Z,5.69
2022-08-28T14:52:43.729Z,6.08
2022-08-28T14:53:43.704Z,5.79
2022-08-28T14:54:43.758Z,5.82
2022-08-28T14:55:43.827Z,5.44
2022-08-28T14:56:43.726Z,6.26
2022-08-28T14:58:43.725Z,5.75
2022-08-28T14:59:43.729Z,6.37
2022-08-28T15:01:43.739Z,6.50
2022-08-28T15:02:43.735Z,6.07
2022-08-28T15:03:43.816Z,5.73
2022-08-28T15:04:43.755Z,6.09
2022-08-28T15:05:43.761Z,5.69
2022-08-28T15:06:43.746Z,5.33
2022-08-28T15:07:43.747Z,6.03
2022-08-28T15:08:43.742Z,6.02
2022-08-28T15:09:43.749Z,5.17
2022-08-28T15:10:43.753Z,6.61
2022-08-28T15:11:43.760Z,6.62
2022-08-28T15:12:43.756Z,5.79
2022-08-28T15:14:47.054Z,5.31
2022-08-28T15:15:43.783Z,6.04
2022-08-28T15:16:43.826Z,5.77
2022-08-28T15:17:43.788Z,5.93
2022-08-28T15:18:43.797Z,5.52
2022-08-28T15:19:43.783Z,5.49
2022-08-28T15:20:43.774Z,6.19
2022-08-28T15:21:43.797Z,6.09
2022-08-28T15:22:43.805Z,6.15
2022-08-28T15:23:43.789Z,6.02
2022-08-28T15:24:43.808Z,6.82
2022-08-28T15:25:43.817Z,5.43
2022-08-28T15:26:43.819Z,5.45
2022-08-28T15:27:43.810Z,5.30
2022-08-28T15:28:43.791Z,5.90
2022-08-28T15:29:43.843Z,5.67
2022-08-28T15:30:43.824Z,6.19
2022-08-28T15:31:43.837Z,6.04